Meteo Giornale » Osservazioni meteo Svizzera » Les Eplatures

ore: 19:50 - Osservazioni Meteo Les Eplatures
Lat. 47° 5' N Lon. 6° 47' E Alt. 1027 metri s.l.m.

poco_nuvoloso

17 °C

Poco Nuvoloso

Temp. 24 Ore

7 °C

20 °C

Nord

3.7 Km/h

Dew point 9 °C

Umidità 59 %

Visibilità  10 Km

Il sole sorge alle ore 06:52

Il sole tramonta alle ore 20:13

Data e Ora Cielo e Fenomeni T °C DP °C Um. % Pres. hPa Vis. km Vento km/h
Oggi h: 19:50 poco_nuvoloso Poco Nuvoloso 17 9 59 1024 10 N 3.7
Oggi h: 19:20 nuvoloso Nuvoloso 18 9 55 1024 10 N 5.5
Oggi h: 18:50 nuvoloso Nuvoloso 18 10 59 1024 10 N/NE 9.3
Oggi h: 18:20 nuvoloso Nuvoloso 19 9 52 1024 10 N/NE 11.1
Oggi h: 17:50 nuvoloso Nuvoloso 20 9 49 1024 10 N 3.7
Oggi h: 17:20 nuvoloso Nuvoloso 20 9 49 1024 10 N 3.7
Oggi h: 16:50 nuvoloso Nuvoloso 20 9 49 1024 10 N 7.4
Oggi h: 16:20 nuvoloso Nuvoloso 20 8 45 1024 10 N 11.1
Oggi h: 15:50 nuvoloso Nuvoloso 20 9 49 1024 10 N 9.3
Oggi h: 15:20 nuvoloso Nuvoloso 20 9 49 1024 10 O/SO 20.3
Oggi h: 14:50 molto_nuvoloso Molto Nuvoloso 19 7 45 1024 10 O/NO 7.4
Oggi h: 14:20 nuvoloso Nuvoloso 18 9 55 1024 10 O/NO 9.3
Oggi h: 13:50 nuvoloso Nuvoloso 19 8 48 1024 10 N 7.4
Oggi h: 13:20 poco_nuvoloso Poco Nuvoloso 19 9 52 1024 10 O/SO 11.1
Oggi h: 12:50 molto_nuvoloso Molto Nuvoloso 19 8 48 1024 10 SO 9.3
Oggi h: 12:20 molto_nuvoloso Molto Nuvoloso 18 9 55 1025 10 N 7.4
Oggi h: 11:50 poco_nuvoloso Poco Nuvoloso 18 10 59 1025 10 N 3.7
Oggi h: 11:20 molto_nuvoloso Molto Nuvoloso 17 9 59 1025 10 N 3.7
Oggi h: 10:50 nuvoloso Nuvoloso 16 9 63 1025 10 N 9.3
Oggi h: 10:20 nuvoloso Nuvoloso 16 10 67 1025 10 N 3.7
Oggi h: 09:50 sereno Sereno 15 11 76 1024 10 N 3.7
Oggi h: 09:20 sereno Sereno 15 11 76 1024 10 N 1.8
Oggi h: 08:50 sereno Sereno 13 10 81 1024 10 N 1.8
Oggi h: 08:20 sereno Sereno 10 9 93 1024 10 N 1.8
Oggi h: 07:50 sereno Sereno 9 8 93 1024 10 N 3.7
Oggi h: 07:20 sereno Sereno 8 7 93 1024 10 N 0
Oggi h: 06:50 sereno Sereno 8 7 93 1024 10 N 0
Oggi h: 06:20 sereno Sereno 7 7 100 1024 10 N 0
Oggi h: 05:50 sereno Sereno 8 7 93 1024 10 N 1.8
Oggi h: 05:20 sereno Sereno 8 7 93 1024 10 N 1.8
Oggi h: 04:50 sereno Sereno 8 7 93 1024 10 N 1.8
Oggi h: 04:20 sereno Sereno 9 8 93 1024 10 N 3.7
Oggi h: 03:50 sereno Sereno 9 8 93 1024 10 N 1.8
Oggi h: 03:20 sereno Sereno 9 8 93 1024 10 N 0
Oggi h: 02:50 sereno Sereno 9 8 93 1024 10 N 1.8
Oggi h: 02:20 sereno Sereno 10 8 87 1024 10 N 3.7
Oggi h: 01:50 sereno Sereno 10 8 87 1024 10 O/SO 7.4
Oggi h: 01:20 sereno Sereno 10 8 87 1024 10 N 5.5
Oggi h: 00:50 sereno Sereno 10 8 87 1024 10 N 3.7
Oggi h: 00:20 sereno Sereno 11 8 81 1025 10 N 1.8
Ieri h: 23:50 sereno Sereno 11 8 81 1025 10 N 0
Ieri h: 23:20 sereno Sereno 11 8 81 1025 10 N 0
Ieri h: 22:50 sereno Sereno 11 8 81 1025 10 N 3.7
Ieri h: 22:20 sereno Sereno 11 8 81 1024 10 N 0
Ieri h: 21:50 sereno Sereno 12 8 76 1024 10 N 1.8
Ieri h: 21:20 sereno Sereno 13 8 71 1024 10 N 3.7
Ieri h: 20:50 sereno Sereno 15 8 62 1024 10 N 5.5